sensor_id;sensor_type;location;lat;lon;timestamp;P1;durP1;ratioP1;P2;durP2;ratioP2
14021;SDS011;7086;48.116;11.580;2023-02-10T00:05:36;10.85;;;8.07;;
14021;SDS011;7086;48.116;11.580;2023-02-10T00:08:07;12.95;;;9.85;;
14021;SDS011;7086;48.116;11.580;2023-02-10T00:10:37;11.05;;;9.10;;
14021;SDS011;7086;48.116;11.580;2023-02-10T00:13:19;12.80;;;9.82;;
14021;SDS011;7086;48.116;11.580;2023-02-10T00:15:47;10.80;;;9.68;;
14021;SDS011;7086;48.116;11.580;2023-02-10T00:18:16;14.55;;;10.45;;
14021;SDS011;7086;48.116;11.580;2023-02-10T00:24:27;16.50;;;10.38;;
14021;SDS011;7086;48.116;11.580;2023-02-10T00:26:54;14.02;;;10.50;;
14021;SDS011;7086;48.116;11.580;2023-02-10T00:29:22;11.00;;;8.63;;
14021;SDS011;7086;48.116;11.580;2023-02-10T00:31:50;11.25;;;9.10;;
14021;SDS011;7086;48.116;11.580;2023-02-10T00:34:17;12.00;;;9.20;;
14021;SDS011;7086;48.116;11.580;2023-02-10T00:36:47;9.52;;;8.23;;
14021;SDS011;7086;48.116;11.580;2023-02-10T00:39:16;10.35;;;9.30;;
14021;SDS011;7086;48.116;11.580;2023-02-10T00:41:44;11.48;;;8.90;;
14021;SDS011;7086;48.116;11.580;2023-02-10T00:44:16;9.93;;;9.02;;
14021;SDS011;7086;48.116;11.580;2023-02-10T00:46:43;10.93;;;9.48;;
14021;SDS011;7086;48.116;11.580;2023-02-10T00:49:11;10.60;;;9.02;;
14021;SDS011;7086;48.116;11.580;2023-02-10T00:51:38;12.55;;;9.10;;
14021;SDS011;7086;48.116;11.580;2023-02-10T00:54:09;11.88;;;9.48;;
14021;SDS011;7086;48.116;11.580;2023-02-10T00:56:38;10.25;;;8.80;;
14021;SDS011;7086;48.116;11.580;2023-02-10T00:59:06;14.77;;;10.18;;
14021;SDS011;7086;48.116;11.580;2023-02-10T01:01:34;16.50;;;9.40;;
14021;SDS011;7086;48.116;11.580;2023-02-10T01:04:02;12.38;;;9.10;;
14021;SDS011;7086;48.116;11.580;2023-02-10T01:06:30;11.38;;;9.77;;
14021;SDS011;7086;48.116;11.580;2023-02-10T01:08:58;14.38;;;10.30;;
14021;SDS011;7086;48.116;11.580;2023-02-10T01:11:27;9.70;;;8.70;;
14021;SDS011;7086;48.116;11.580;2023-02-10T01:13:54;11.00;;;9.52;;
14021;SDS011;7086;48.116;11.580;2023-02-10T01:16:22;11.30;;;10.13;;
14021;SDS011;7086;48.116;11.580;2023-02-10T01:18:50;13.25;;;9.30;;
14021;SDS011;7086;48.116;11.580;2023-02-10T01:21:19;13.52;;;8.85;;
14021;SDS011;7086;48.116;11.580;2023-02-10T01:23:47;12.77;;;10.07;;
14021;SDS011;7086;48.116;11.580;2023-02-10T01:26:17;11.43;;;9.70;;
14021;SDS011;7086;48.116;11.580;2023-02-10T01:28:50;12.35;;;10.40;;
14021;SDS011;7086;48.116;11.580;2023-02-10T01:31:25;12.57;;;9.85;;
14021;SDS011;7086;48.116;11.580;2023-02-10T01:33:54;12.55;;;9.48;;
14021;SDS011;7086;48.116;11.580;2023-02-10T01:36:22;10.98;;;9.43;;
14021;SDS011;7086;48.116;11.580;2023-02-10T01:38:51;9.75;;;8.38;;
14021;SDS011;7086;48.116;11.580;2023-02-10T01:41:20;9.90;;;8.32;;
14021;SDS011;7086;48.116;11.580;2023-02-10T01:44:55;9.70;;;8.32;;
14021;SDS011;7086;48.116;11.580;2023-02-10T01:47:30;13.23;;;9.38;;
14021;SDS011;7086;48.116;11.580;2023-02-10T01:49:58;13.02;;;8.93;;
14021;SDS011;7086;48.116;11.580;2023-02-10T01:52:26;13.02;;;8.13;;
14021;SDS011;7086;48.116;11.580;2023-02-10T01:54:57;12.07;;;8.73;;
14021;SDS011;7086;48.116;11.580;2023-02-10T01:57:32;16.70;;;10.40;;
14021;SDS011;7086;48.116;11.580;2023-02-10T02:00:05;12.93;;;9.48;;
14021;SDS011;7086;48.116;11.580;2023-02-10T02:02:35;9.88;;;8.65;;
14021;SDS011;7086;48.116;11.580;2023-02-10T02:05:19;11.85;;;8.63;;
14021;SDS011;7086;48.116;11.580;2023-02-10T02:07:55;11.10;;;7.50;;
14021;SDS011;7086;48.116;11.580;2023-02-10T02:10:31;8.52;;;7.78;;
14021;SDS011;7086;48.116;11.580;2023-02-10T02:13:15;8.52;;;7.70;;
14021;SDS011;7086;48.116;11.580;2023-02-10T02:15:57;11.40;;;9.32;;
14021;SDS011;7086;48.116;11.580;2023-02-10T02:18:36;13.52;;;9.23;;
14021;SDS011;7086;48.116;11.580;2023-02-10T02:24:57;9.38;;;7.60;;
14021;SDS011;7086;48.116;11.580;2023-02-10T02:28:01;8.77;;;7.80;;
14021;SDS011;7086;48.116;11.580;2023-02-10T02:30:54;9.95;;;8.32;;
14021;SDS011;7086;48.116;11.580;2023-02-10T02:34:10;9.00;;;7.82;;
14021;SDS011;7086;48.116;11.580;2023-02-10T02:36:46;8.77;;;7.85;;
14021;SDS011;7086;48.116;11.580;2023-02-10T02:39:18;8.50;;;7.55;;
14021;SDS011;7086;48.116;11.580;2023-02-10T02:41:56;9.40;;;8.10;;
14021;SDS011;7086;48.116;11.580;2023-02-10T02:44:40;10.45;;;8.60;;
14021;SDS011;7086;48.116;11.580;2023-02-10T02:47:12;10.88;;;9.07;;
14021;SDS011;7086;48.116;11.580;2023-02-10T02:49:56;10.88;;;9.32;;
14021;SDS011;7086;48.116;11.580;2023-02-10T02:52:44;11.82;;;9.20;;
14021;SDS011;7086;48.116;11.580;2023-02-10T02:55:36;10.05;;;8.57;;
14021;SDS011;7086;48.116;11.580;2023-02-10T02:58:26;9.85;;;8.90;;
14021;SDS011;7086;48.116;11.580;2023-02-10T03:01:07;9.77;;;8.77;;
14021;SDS011;7086;48.116;11.580;2023-02-10T03:03:42;11.60;;;8.40;;
14021;SDS011;7086;48.116;11.580;2023-02-10T03:06:10;9.18;;;7.50;;
14021;SDS011;7086;48.116;11.580;2023-02-10T03:08:38;11.35;;;8.73;;
14021;SDS011;7086;48.116;11.580;2023-02-10T03:11:07;11.00;;;8.93;;
14021;SDS011;7086;48.116;11.580;2023-02-10T03:13:35;9.32;;;8.35;;
14021;SDS011;7086;48.116;11.580;2023-02-10T03:16:03;9.75;;;8.65;;
14021;SDS011;7086;48.116;11.580;2023-02-10T03:18:31;9.82;;;8.23;;
14021;SDS011;7086;48.116;11.580;2023-02-10T03:21:00;8.70;;;7.97;;
14021;SDS011;7086;48.116;11.580;2023-02-10T03:23:29;11.20;;;9.35;;
14021;SDS011;7086;48.116;11.580;2023-02-10T03:25:57;9.38;;;7.88;;
14021;SDS011;7086;48.116;11.580;2023-02-10T03:28:25;10.80;;;8.27;;
14021;SDS011;7086;48.116;11.580;2023-02-10T03:30:52;8.63;;;7.65;;
14021;SDS011;7086;48.116;11.580;2023-02-10T03:33:20;8.68;;;6.97;;
14021;SDS011;7086;48.116;11.580;2023-02-10T03:35:48;8.38;;;7.50;;
14021;SDS011;7086;48.116;11.580;2023-02-10T03:38:17;10.38;;;8.05;;
14021;SDS011;7086;48.116;11.580;2023-02-10T03:40:48;9.45;;;7.95;;
14021;SDS011;7086;48.116;11.580;2023-02-10T03:43:16;7.95;;;7.15;;
14021;SDS011;7086;48.116;11.580;2023-02-10T03:45:44;9.15;;;8.25;;
14021;SDS011;7086;48.116;11.580;2023-02-10T03:48:15;9.40;;;7.72;;
14021;SDS011;7086;48.116;11.580;2023-02-10T03:50:43;7.93;;;6.97;;
14021;SDS011;7086;48.116;11.580;2023-02-10T03:53:11;8.35;;;7.53;;
14021;SDS011;7086;48.116;11.580;2023-02-10T03:55:41;7.88;;;7.07;;
14021;SDS011;7086;48.116;11.580;2023-02-10T03:58:08;8.57;;;7.68;;
14021;SDS011;7086;48.116;11.580;2023-02-10T04:00:36;7.88;;;6.95;;
14021;SDS011;7086;48.116;11.580;2023-02-10T04:03:03;7.20;;;6.50;;
14021;SDS011;7086;48.116;11.580;2023-02-10T04:05:31;10.68;;;7.82;;
14021;SDS011;7086;48.116;11.580;2023-02-10T04:07:59;8.45;;;6.90;;
14021;SDS011;7086;48.116;11.580;2023-02-10T04:10:27;7.50;;;6.80;;
14021;SDS011;7086;48.116;11.580;2023-02-10T04:12:56;7.30;;;6.68;;
14021;SDS011;7086;48.116;11.580;2023-02-10T04:15:24;8.73;;;7.82;;
14021;SDS011;7086;48.116;11.580;2023-02-10T04:17:51;11.25;;;8.30;;
14021;SDS011;7086;48.116;11.580;2023-02-10T04:20:21;9.07;;;7.82;;
14021;SDS011;7086;48.116;11.580;2023-02-10T04:22:49;7.60;;;6.90;;
14021;SDS011;7086;48.116;11.580;2023-02-10T04:25:17;7.93;;;6.25;;
14021;SDS011;7086;48.116;11.580;2023-02-10T04:27:44;13.27;;;6.88;;
14021;SDS011;7086;48.116;11.580;2023-02-10T04:30:13;7.60;;;6.90;;
14021;SDS011;7086;48.116;11.580;2023-02-10T04:32:41;9.95;;;7.75;;
14021;SDS011;7086;48.116;11.580;2023-02-10T04:35:08;7.85;;;7.10;;
14021;SDS011;7086;48.116;11.580;2023-02-10T04:37:36;10.98;;;6.93;;
14021;SDS011;7086;48.116;11.580;2023-02-10T04:40:04;10.13;;;7.70;;
14021;SDS011;7086;48.116;11.580;2023-02-10T04:42:32;8.00;;;7.20;;
14021;SDS011;7086;48.116;11.580;2023-02-10T04:45:00;8.43;;;7.63;;
14021;SDS011;7086;48.116;11.580;2023-02-10T04:47:29;8.02;;;7.22;;
14021;SDS011;7086;48.116;11.580;2023-02-10T04:49:57;11.27;;;7.03;;
14021;SDS011;7086;48.116;11.580;2023-02-10T04:52:24;8.63;;;7.68;;
14021;SDS011;7086;48.116;11.580;2023-02-10T04:54:52;9.35;;;7.63;;
14021;SDS011;7086;48.116;11.580;2023-02-10T04:57:20;8.07;;;7.15;;
14021;SDS011;7086;48.116;11.580;2023-02-10T04:59:47;7.60;;;6.55;;
14021;SDS011;7086;48.116;11.580;2023-02-10T05:02:18;7.22;;;6.53;;
14021;SDS011;7086;48.116;11.580;2023-02-10T05:04:59;7.80;;;6.43;;
14021;SDS011;7086;48.116;11.580;2023-02-10T05:07:28;7.47;;;6.70;;
14021;SDS011;7086;48.116;11.580;2023-02-10T05:10:04;7.75;;;6.85;;
14021;SDS011;7086;48.116;11.580;2023-02-10T05:12:35;7.03;;;6.32;;
14021;SDS011;7086;48.116;11.580;2023-02-10T05:17:55;6.82;;;6.18;;
14021;SDS011;7086;48.116;11.580;2023-02-10T05:23:22;8.05;;;6.38;;
14021;SDS011;7086;48.116;11.580;2023-02-10T05:26:04;6.28;;;5.68;;
14021;SDS011;7086;48.116;11.580;2023-02-10T05:28:33;7.38;;;5.97;;
14021;SDS011;7086;48.116;11.580;2023-02-10T05:31:07;6.18;;;5.68;;
14021;SDS011;7086;48.116;11.580;2023-02-10T05:33:49;7.00;;;6.35;;
14021;SDS011;7086;48.116;11.580;2023-02-10T19:13:29;25.73;;;16.73;;
14021;SDS011;7086;48.116;11.580;2023-02-10T19:16:12;30.13;;;19.10;;
14021;SDS011;7086;48.116;11.580;2023-02-10T19:18:41;25.00;;;18.08;;
14021;SDS011;7086;48.116;11.580;2023-02-10T19:21:27;37.92;;;20.27;;
14021;SDS011;7086;48.116;11.580;2023-02-10T19:24:12;21.50;;;17.13;;
14021;SDS011;7086;48.116;11.580;2023-02-10T19:26:55;27.27;;;19.10;;
14021;SDS011;7086;48.116;11.580;2023-02-10T20:17:27;32.70;;;21.08;;
14021;SDS011;7086;48.116;11.580;2023-02-10T20:20:24;29.02;;;18.92;;
14021;SDS011;7086;48.116;11.580;2023-02-10T20:23:07;30.38;;;18.80;;
14021;SDS011;7086;48.116;11.580;2023-02-10T20:25:49;29.30;;;18.73;;
14021;SDS011;7086;48.116;11.580;2023-02-10T22:17:48;19.52;;;14.73;;
14021;SDS011;7086;48.116;11.580;2023-02-10T22:24:12;19.73;;;13.57;;
14021;SDS011;7086;48.116;11.580;2023-02-10T22:27:24;17.27;;;12.77;;
14021;SDS011;7086;48.116;11.580;2023-02-10T22:30:11;22.83;;;16.85;;
14021;SDS011;7086;48.116;11.580;2023-02-10T22:39:39;17.42;;;12.10;;
14021;SDS011;7086;48.116;11.580;2023-02-10T22:42:13;16.00;;;12.30;;
14021;SDS011;7086;48.116;11.580;2023-02-10T22:44:55;18.23;;;12.15;;
14021;SDS011;7086;48.116;11.580;2023-02-10T22:47:36;16.23;;;11.25;;
14021;SDS011;7086;48.116;11.580;2023-02-10T22:50:10;13.95;;;10.75;;
14021;SDS011;7086;48.116;11.580;2023-02-10T22:52:38;11.32;;;10.10;;
14021;SDS011;7086;48.116;11.580;2023-02-10T22:58:24;16.33;;;11.88;;
14021;SDS011;7086;48.116;11.580;2023-02-10T23:01:05;15.73;;;11.55;;
14021;SDS011;7086;48.116;11.580;2023-02-10T23:03:48;20.17;;;12.75;;
14021;SDS011;7086;48.116;11.580;2023-02-10T23:06:29;17.45;;;11.23;;
14021;SDS011;7086;48.116;11.580;2023-02-10T23:09:13;18.27;;;11.43;;
14021;SDS011;7086;48.116;11.580;2023-02-10T23:18:08;13.65;;;10.13;;
14021;SDS011;7086;48.116;11.580;2023-02-10T23:28:36;13.40;;;11.25;;
14021;SDS011;7086;48.116;11.580;2023-02-10T23:31:12;18.77;;;11.23;;
14021;SDS011;7086;48.116;11.580;2023-02-10T23:33:56;13.23;;;9.82;;
14021;SDS011;7086;48.116;11.580;2023-02-10T23:36:30;15.38;;;11.02;;
14021;SDS011;7086;48.116;11.580;2023-02-10T23:39:01;15.30;;;11.15;;
14021;SDS011;7086;48.116;11.580;2023-02-10T23:44:51;13.25;;;10.20;;
14021;SDS011;7086;48.116;11.580;2023-02-10T23:51:27;13.07;;;9.77;;
14021;SDS011;7086;48.116;11.580;2023-02-10T23:54:03;13.35;;;10.05;;
14021;SDS011;7086;48.116;11.580;2023-02-10T23:56:32;10.77;;;9.70;;
14021;SDS011;7086;48.116;11.580;2023-02-10T23:59:05;23.35;;;10.75;;
